sensor_id;sensor_type;location;lat;lon;timestamp;P1;durP1;ratioP1;P2;durP2;ratioP2
68457;SDS011;65384;52.016;5.428;2023-07-13T00:01:25;9.25;;;1.98;;
68457;SDS011;65384;52.016;5.428;2023-07-13T00:03:51;5.60;;;1.90;;
68457;SDS011;65384;52.016;5.428;2023-07-13T00:06:17;8.70;;;1.90;;
68457;SDS011;65384;52.016;5.428;2023-07-13T00:08:42;5.80;;;1.80;;
68457;SDS011;65384;52.016;5.428;2023-07-13T00:11:07;6.90;;;1.88;;
68457;SDS011;65384;52.016;5.428;2023-07-13T00:13:35;9.15;;;2.20;;
68457;SDS011;65384;52.016;5.428;2023-07-13T00:16:03;10.45;;;2.08;;
68457;SDS011;65384;52.016;5.428;2023-07-13T00:18:28;5.68;;;1.90;;
68457;SDS011;65384;52.016;5.428;2023-07-13T00:20:55;7.15;;;1.90;;
68457;SDS011;65384;52.016;5.428;2023-07-13T00:23:21;9.10;;;1.92;;
68457;SDS011;65384;52.016;5.428;2023-07-13T00:25:46;5.43;;;1.83;;
68457;SDS011;65384;52.016;5.428;2023-07-13T00:28:12;5.93;;;1.65;;
68457;SDS011;65384;52.016;5.428;2023-07-13T00:30:37;8.75;;;2.08;;
68457;SDS011;65384;52.016;5.428;2023-07-13T00:33:02;11.15;;;1.80;;
68457;SDS011;65384;52.016;5.428;2023-07-13T00:35:30;9.40;;;2.50;;
68457;SDS011;65384;52.016;5.428;2023-07-13T00:37:55;7.70;;;1.77;;
68457;SDS011;65384;52.016;5.428;2023-07-13T00:40:21;8.80;;;1.77;;
68457;SDS011;65384;52.016;5.428;2023-07-13T00:42:46;5.15;;;1.70;;
68457;SDS011;65384;52.016;5.428;2023-07-13T00:47:37;5.95;;;1.73;;
68457;SDS011;65384;52.016;5.428;2023-07-13T00:50:13;6.93;;;1.98;;
68457;SDS011;65384;52.016;5.428;2023-07-13T00:52:41;5.78;;;2.05;;
68457;SDS011;65384;52.016;5.428;2023-07-13T00:55:08;10.73;;;2.13;;
68457;SDS011;65384;52.016;5.428;2023-07-13T00:57:34;6.05;;;1.90;;
68457;SDS011;65384;52.016;5.428;2023-07-13T01:00:01;5.53;;;1.70;;
68457;SDS011;65384;52.016;5.428;2023-07-13T01:02:30;7.65;;;1.90;;
68457;SDS011;65384;52.016;5.428;2023-07-13T01:04:56;5.25;;;1.58;;
68457;SDS011;65384;52.016;5.428;2023-07-13T01:07:21;5.13;;;1.70;;
68457;SDS011;65384;52.016;5.428;2023-07-13T01:09:46;7.43;;;1.83;;
68457;SDS011;65384;52.016;5.428;2023-07-13T01:12:12;9.32;;;2.33;;
68457;SDS011;65384;52.016;5.428;2023-07-13T01:14:38;9.75;;;1.90;;
68457;SDS011;65384;52.016;5.428;2023-07-13T01:17:04;7.53;;;1.98;;
68457;SDS011;65384;52.016;5.428;2023-07-13T01:22:01;9.98;;;2.05;;
68457;SDS011;65384;52.016;5.428;2023-07-13T01:24:34;8.52;;;1.98;;
68457;SDS011;65384;52.016;5.428;2023-07-13T01:27:01;10.10;;;2.03;;
68457;SDS011;65384;52.016;5.428;2023-07-13T01:29:26;5.65;;;1.92;;
68457;SDS011;65384;52.016;5.428;2023-07-13T01:31:51;6.40;;;1.95;;
68457;SDS011;65384;52.016;5.428;2023-07-13T01:34:17;4.25;;;1.90;;
68457;SDS011;65384;52.016;5.428;2023-07-13T01:36:42;8.43;;;2.13;;
68457;SDS011;65384;52.016;5.428;2023-07-13T01:39:07;8.00;;;1.85;;
68457;SDS011;65384;52.016;5.428;2023-07-13T01:41:33;8.65;;;1.95;;
68457;SDS011;65384;52.016;5.428;2023-07-13T01:43:58;7.53;;;2.22;;
68457;SDS011;65384;52.016;5.428;2023-07-13T01:46:24;9.52;;;1.85;;
68457;SDS011;65384;52.016;5.428;2023-07-13T01:48:49;5.35;;;1.88;;
68457;SDS011;65384;52.016;5.428;2023-07-13T01:51:15;7.45;;;1.98;;
68457;SDS011;65384;52.016;5.428;2023-07-13T01:53:41;11.20;;;2.05;;
68457;SDS011;65384;52.016;5.428;2023-07-13T01:56:07;7.18;;;2.00;;
68457;SDS011;65384;52.016;5.428;2023-07-13T01:58:32;9.23;;;2.22;;
68457;SDS011;65384;52.016;5.428;2023-07-13T02:00:57;8.43;;;2.15;;
68457;SDS011;65384;52.016;5.428;2023-07-13T02:03:23;9.00;;;2.00;;
68457;SDS011;65384;52.016;5.428;2023-07-13T02:05:48;9.52;;;2.13;;
68457;SDS011;65384;52.016;5.428;2023-07-13T02:08:14;12.68;;;2.88;;
68457;SDS011;65384;52.016;5.428;2023-07-13T02:10:39;5.65;;;2.10;;
68457;SDS011;65384;52.016;5.428;2023-07-13T02:13:05;7.80;;;2.25;;
68457;SDS011;65384;52.016;5.428;2023-07-13T02:15:31;10.65;;;2.17;;
68457;SDS011;65384;52.016;5.428;2023-07-13T02:17:57;9.23;;;3.13;;
68457;SDS011;65384;52.016;5.428;2023-07-13T02:20:23;10.27;;;2.00;;
68457;SDS011;65384;52.016;5.428;2023-07-13T02:22:49;9.80;;;2.40;;
68457;SDS011;65384;52.016;5.428;2023-07-13T02:25:14;11.25;;;2.40;;
68457;SDS011;65384;52.016;5.428;2023-07-13T02:27:40;16.67;;;2.45;;
68457;SDS011;65384;52.016;5.428;2023-07-13T02:30:05;11.43;;;2.45;;
68457;SDS011;65384;52.016;5.428;2023-07-13T02:32:31;6.00;;;2.13;;
68457;SDS011;65384;52.016;5.428;2023-07-13T02:34:57;9.50;;;2.50;;
68457;SDS011;65384;52.016;5.428;2023-07-13T02:37:22;9.05;;;2.50;;
68457;SDS011;65384;52.016;5.428;2023-07-13T02:39:48;9.10;;;2.63;;
68457;SDS011;65384;52.016;5.428;2023-07-13T02:42:13;13.13;;;2.75;;
68457;SDS011;65384;52.016;5.428;2023-07-13T02:44:38;10.82;;;2.50;;
68457;SDS011;65384;52.016;5.428;2023-07-13T02:47:04;8.65;;;2.58;;
68457;SDS011;65384;52.016;5.428;2023-07-13T02:49:29;13.65;;;3.03;;
68457;SDS011;65384;52.016;5.428;2023-07-13T02:51:54;11.90;;;2.72;;
68457;SDS011;65384;52.016;5.428;2023-07-13T02:54:20;11.82;;;2.60;;
68457;SDS011;65384;52.016;5.428;2023-07-13T02:56:45;10.75;;;2.42;;
68457;SDS011;65384;52.016;5.428;2023-07-13T02:59:11;13.05;;;2.97;;
68457;SDS011;65384;52.016;5.428;2023-07-13T03:01:37;11.85;;;2.88;;
68457;SDS011;65384;52.016;5.428;2023-07-13T03:04:03;13.68;;;2.80;;
68457;SDS011;65384;52.016;5.428;2023-07-13T03:06:28;10.70;;;2.75;;
68457;SDS011;65384;52.016;5.428;2023-07-13T03:08:56;11.55;;;2.70;;
68457;SDS011;65384;52.016;5.428;2023-07-13T03:11:21;14.07;;;2.75;;
68457;SDS011;65384;52.016;5.428;2023-07-13T03:13:47;14.43;;;3.17;;
68457;SDS011;65384;52.016;5.428;2023-07-13T03:16:12;10.57;;;2.95;;
68457;SDS011;65384;52.016;5.428;2023-07-13T03:18:40;10.57;;;2.85;;
68457;SDS011;65384;52.016;5.428;2023-07-13T03:21:06;17.20;;;3.63;;
68457;SDS011;65384;52.016;5.428;2023-07-13T03:23:31;10.95;;;2.92;;
68457;SDS011;65384;52.016;5.428;2023-07-13T03:26:07;10.63;;;2.92;;
68457;SDS011;65384;52.016;5.428;2023-07-13T03:28:34;12.65;;;3.28;;
68457;SDS011;65384;52.016;5.428;2023-07-13T03:31:05;11.60;;;2.97;;
68457;SDS011;65384;52.016;5.428;2023-07-13T03:33:32;14.35;;;3.25;;
68457;SDS011;65384;52.016;5.428;2023-07-13T03:35:57;9.02;;;3.00;;
68457;SDS011;65384;52.016;5.428;2023-07-13T03:38:22;19.15;;;3.85;;
68457;SDS011;65384;52.016;5.428;2023-07-13T03:40:48;12.85;;;3.28;;
68457;SDS011;65384;52.016;5.428;2023-07-13T03:43:13;11.75;;;3.20;;
68457;SDS011;65384;52.016;5.428;2023-07-13T03:45:39;12.75;;;3.15;;
68457;SDS011;65384;52.016;5.428;2023-07-13T03:48:04;14.52;;;3.13;;
68457;SDS011;65384;52.016;5.428;2023-07-13T03:50:30;12.50;;;2.90;;
68457;SDS011;65384;52.016;5.428;2023-07-13T03:52:57;20.52;;;4.10;;
68457;SDS011;65384;52.016;5.428;2023-07-13T03:55:22;10.80;;;3.17;;
68457;SDS011;65384;52.016;5.428;2023-07-13T03:57:52;11.45;;;3.10;;
68457;SDS011;65384;52.016;5.428;2023-07-13T04:00:18;14.20;;;3.40;;
68457;SDS011;65384;52.016;5.428;2023-07-13T04:02:44;15.77;;;3.15;;
68457;SDS011;65384;52.016;5.428;2023-07-13T04:05:11;9.90;;;3.10;;
68457;SDS011;65384;52.016;5.428;2023-07-13T04:07:37;15.18;;;3.42;;
68457;SDS011;65384;52.016;5.428;2023-07-13T04:10:02;13.15;;;3.25;;
68457;SDS011;65384;52.016;5.428;2023-07-13T04:12:28;18.45;;;4.00;;
68457;SDS011;65384;52.016;5.428;2023-07-13T04:14:53;13.68;;;3.50;;
68457;SDS011;65384;52.016;5.428;2023-07-13T04:17:19;11.32;;;3.28;;
68457;SDS011;65384;52.016;5.428;2023-07-13T04:19:44;12.43;;;3.42;;
68457;SDS011;65384;52.016;5.428;2023-07-13T04:22:10;13.13;;;3.75;;
68457;SDS011;65384;52.016;5.428;2023-07-13T04:24:35;18.08;;;3.55;;
68457;SDS011;65384;52.016;5.428;2023-07-13T04:27:01;16.95;;;4.05;;
68457;SDS011;65384;52.016;5.428;2023-07-13T04:29:28;13.40;;;4.00;;
68457;SDS011;65384;52.016;5.428;2023-07-13T04:31:53;12.10;;;3.65;;
68457;SDS011;65384;52.016;5.428;2023-07-13T04:34:18;15.93;;;3.80;;
68457;SDS011;65384;52.016;5.428;2023-07-13T04:36:44;15.65;;;3.90;;
68457;SDS011;65384;52.016;5.428;2023-07-13T04:39:09;12.18;;;3.63;;
68457;SDS011;65384;52.016;5.428;2023-07-13T04:41:35;15.50;;;3.72;;
68457;SDS011;65384;52.016;5.428;2023-07-13T04:44:00;17.75;;;4.28;;
68457;SDS011;65384;52.016;5.428;2023-07-13T04:46:27;12.95;;;3.85;;
68457;SDS011;65384;52.016;5.428;2023-07-13T04:48:53;14.38;;;4.30;;
68457;SDS011;65384;52.016;5.428;2023-07-13T04:51:18;16.70;;;3.88;;
68457;SDS011;65384;52.016;5.428;2023-07-13T04:53:44;17.10;;;4.10;;
68457;SDS011;65384;52.016;5.428;2023-07-13T04:56:09;18.58;;;5.22;;
68457;SDS011;65384;52.016;5.428;2023-07-13T04:58:35;13.45;;;3.83;;
68457;SDS011;65384;52.016;5.428;2023-07-13T05:01:03;15.23;;;4.30;;
68457;SDS011;65384;52.016;5.428;2023-07-13T05:03:30;16.77;;;4.72;;
68457;SDS011;65384;52.016;5.428;2023-07-13T05:05:59;15.70;;;5.00;;
68457;SDS011;65384;52.016;5.428;2023-07-13T05:08:26;19.42;;;5.10;;
68457;SDS011;65384;52.016;5.428;2023-07-13T05:10:51;14.45;;;4.45;;
68457;SDS011;65384;52.016;5.428;2023-07-13T05:13:17;14.65;;;4.70;;
68457;SDS011;65384;52.016;5.428;2023-07-13T05:15:42;20.77;;;5.25;;
68457;SDS011;65384;52.016;5.428;2023-07-13T05:18:08;15.93;;;4.95;;
68457;SDS011;65384;52.016;5.428;2023-07-13T05:20:33;16.77;;;4.57;;
68457;SDS011;65384;52.016;5.428;2023-07-13T05:22:59;15.30;;;4.50;;
68457;SDS011;65384;52.016;5.428;2023-07-13T05:25:24;17.50;;;4.82;;
68457;SDS011;65384;52.016;5.428;2023-07-13T05:27:49;15.20;;;5.00;;
68457;SDS011;65384;52.016;5.428;2023-07-13T05:30:15;22.80;;;5.72;;
68457;SDS011;65384;52.016;5.428;2023-07-13T05:32:40;13.25;;;4.90;;
68457;SDS011;65384;52.016;5.428;2023-07-13T05:35:06;19.27;;;5.10;;
68457;SDS011;65384;52.016;5.428;2023-07-13T05:37:32;18.90;;;4.95;;
68457;SDS011;65384;52.016;5.428;2023-07-13T05:39:57;21.60;;;5.18;;
68457;SDS011;65384;52.016;5.428;2023-07-13T05:42:23;18.98;;;5.65;;
68457;SDS011;65384;52.016;5.428;2023-07-13T05:44:49;16.75;;;5.45;;
68457;SDS011;65384;52.016;5.428;2023-07-13T05:47:14;19.77;;;5.45;;
68457;SDS011;65384;52.016;5.428;2023-07-13T05:49:40;17.55;;;6.07;;
68457;SDS011;65384;52.016;5.428;2023-07-13T05:52:06;20.25;;;5.53;;
68457;SDS011;65384;52.016;5.428;2023-07-13T05:54:31;17.95;;;5.75;;
68457;SDS011;65384;52.016;5.428;2023-07-13T05:56:57;25.05;;;7.18;;
68457;SDS011;65384;52.016;5.428;2023-07-13T05:59:22;18.38;;;6.63;;
68457;SDS011;65384;52.016;5.428;2023-07-13T06:01:47;20.13;;;6.63;;
68457;SDS011;65384;52.016;5.428;2023-07-13T06:04:13;25.55;;;7.03;;
68457;SDS011;65384;52.016;5.428;2023-07-13T06:06:39;21.88;;;7.10;;
68457;SDS011;65384;52.016;5.428;2023-07-13T06:09:04;22.08;;;7.90;;
68457;SDS011;65384;52.016;5.428;2023-07-13T06:11:29;25.25;;;7.72;;
68457;SDS011;65384;52.016;5.428;2023-07-13T06:13:55;22.50;;;7.63;;
68457;SDS011;65384;52.016;5.428;2023-07-13T06:16:21;27.58;;;7.95;;
68457;SDS011;65384;52.016;5.428;2023-07-13T06:18:47;22.02;;;8.30;;
68457;SDS011;65384;52.016;5.428;2023-07-13T06:21:13;26.27;;;8.48;;
68457;SDS011;65384;52.016;5.428;2023-07-13T06:23:46;28.05;;;9.25;;
68457;SDS011;65384;52.016;5.428;2023-07-13T06:26:12;25.65;;;9.52;;
68457;SDS011;65384;52.016;5.428;2023-07-13T06:28:38;21.33;;;8.85;;
68457;SDS011;65384;52.016;5.428;2023-07-13T06:31:05;26.00;;;9.25;;
68457;SDS011;65384;52.016;5.428;2023-07-13T06:33:31;25.70;;;9.02;;
68457;SDS011;65384;52.016;5.428;2023-07-13T06:35:56;28.33;;;10.32;;
68457;SDS011;65384;52.016;5.428;2023-07-13T06:38:22;22.02;;;8.57;;
68457;SDS011;65384;52.016;5.428;2023-07-13T06:40:47;26.65;;;9.45;;
68457;SDS011;65384;52.016;5.428;2023-07-13T06:43:13;23.88;;;8.80;;
68457;SDS011;65384;52.016;5.428;2023-07-13T06:45:43;24.88;;;8.88;;
68457;SDS011;65384;52.016;5.428;2023-07-13T06:48:15;21.83;;;8.85;;
68457;SDS011;65384;52.016;5.428;2023-07-13T06:50:41;28.45;;;8.93;;
68457;SDS011;65384;52.016;5.428;2023-07-13T06:53:07;21.42;;;9.27;;
68457;SDS011;65384;52.016;5.428;2023-07-13T06:55:32;24.23;;;9.02;;
68457;SDS011;65384;52.016;5.428;2023-07-13T06:57:58;22.33;;;9.73;;
68457;SDS011;65384;52.016;5.428;2023-07-13T07:00:23;23.20;;;9.70;;
68457;SDS011;65384;52.016;5.428;2023-07-13T07:02:48;21.42;;;9.25;;
68457;SDS011;65384;52.016;5.428;2023-07-13T07:05:14;26.50;;;10.25;;
68457;SDS011;65384;52.016;5.428;2023-07-13T07:07:39;28.08;;;9.85;;
68457;SDS011;65384;52.016;5.428;2023-07-13T07:10:04;22.52;;;9.82;;
68457;SDS011;65384;52.016;5.428;2023-07-13T07:12:30;24.13;;;10.32;;
68457;SDS011;65384;52.016;5.428;2023-07-13T07:14:56;24.33;;;9.85;;
68457;SDS011;65384;52.016;5.428;2023-07-13T07:17:21;25.27;;;9.85;;
68457;SDS011;65384;52.016;5.428;2023-07-13T07:19:46;28.23;;;10.55;;
68457;SDS011;65384;52.016;5.428;2023-07-13T07:22:12;35.67;;;10.50;;
68457;SDS011;65384;52.016;5.428;2023-07-13T07:24:37;26.58;;;9.73;;
68457;SDS011;65384;52.016;5.428;2023-07-13T07:27:03;23.50;;;9.20;;
68457;SDS011;65384;52.016;5.428;2023-07-13T07:29:28;22.35;;;9.30;;
68457;SDS011;65384;52.016;5.428;2023-07-13T07:31:54;19.60;;;9.32;;
68457;SDS011;65384;52.016;5.428;2023-07-13T07:34:19;21.15;;;9.27;;
68457;SDS011;65384;52.016;5.428;2023-07-13T07:36:45;19.83;;;8.55;;
68457;SDS011;65384;52.016;5.428;2023-07-13T07:39:10;20.75;;;8.60;;
68457;SDS011;65384;52.016;5.428;2023-07-13T07:41:36;22.65;;;8.88;;
68457;SDS011;65384;52.016;5.428;2023-07-13T07:44:02;21.85;;;9.13;;
68457;SDS011;65384;52.016;5.428;2023-07-13T07:46:28;18.55;;;8.68;;
68457;SDS011;65384;52.016;5.428;2023-07-13T07:48:54;19.83;;;9.02;;
68457;SDS011;65384;52.016;5.428;2023-07-13T07:51:20;22.08;;;8.82;;
68457;SDS011;65384;52.016;5.428;2023-07-13T07:53:46;22.83;;;8.73;;
68457;SDS011;65384;52.016;5.428;2023-07-13T07:56:12;26.15;;;8.82;;
68457;SDS011;65384;52.016;5.428;2023-07-13T07:58:37;19.90;;;8.40;;
68457;SDS011;65384;52.016;5.428;2023-07-13T08:01:05;20.67;;;8.52;;
68457;SDS011;65384;52.016;5.428;2023-07-13T08:03:31;20.35;;;8.48;;
68457;SDS011;65384;52.016;5.428;2023-07-13T08:05:57;21.90;;;8.65;;
68457;SDS011;65384;52.016;5.428;2023-07-13T08:08:22;23.08;;;8.25;;
68457;SDS011;65384;52.016;5.428;2023-07-13T08:10:47;18.17;;;8.65;;
68457;SDS011;65384;52.016;5.428;2023-07-13T08:13:13;16.73;;;7.75;;
68457;SDS011;65384;52.016;5.428;2023-07-13T08:15:38;19.63;;;7.25;;
68457;SDS011;65384;52.016;5.428;2023-07-13T08:18:04;19.27;;;7.60;;
68457;SDS011;65384;52.016;5.428;2023-07-13T08:20:29;15.25;;;6.72;;
68457;SDS011;65384;52.016;5.428;2023-07-13T08:22:54;18.35;;;7.55;;
68457;SDS011;65384;52.016;5.428;2023-07-13T08:25:20;15.25;;;6.65;;
68457;SDS011;65384;52.016;5.428;2023-07-13T08:27:46;17.08;;;6.88;;
68457;SDS011;65384;52.016;5.428;2023-07-13T08:30:12;16.40;;;5.82;;
68457;SDS011;65384;52.016;5.428;2023-07-13T08:32:37;13.27;;;4.93;;
68457;SDS011;65384;52.016;5.428;2023-07-13T08:35:04;12.00;;;4.70;;
68457;SDS011;65384;52.016;5.428;2023-07-13T08:37:30;10.32;;;4.00;;
68457;SDS011;65384;52.016;5.428;2023-07-13T08:39:55;10.55;;;4.25;;
68457;SDS011;65384;52.016;5.428;2023-07-13T08:47:34;8.45;;;2.80;;
68457;SDS011;65384;52.016;5.428;2023-07-13T08:50:03;5.35;;;2.80;;
68457;SDS011;65384;52.016;5.428;2023-07-13T08:52:36;10.55;;;3.00;;
68457;SDS011;65384;52.016;5.428;2023-07-13T08:55:22;8.73;;;3.13;;
68457;SDS011;65384;52.016;5.428;2023-07-13T08:58:10;6.75;;;3.47;;
68457;SDS011;65384;52.016;5.428;2023-07-13T09:00:54;7.47;;;3.20;;
68457;SDS011;65384;52.016;5.428;2023-07-13T09:03:26;5.75;;;3.08;;
68457;SDS011;65384;52.016;5.428;2023-07-13T09:06:14;7.03;;;3.50;;
68457;SDS011;65384;52.016;5.428;2023-07-13T09:14:22;12.05;;;4.25;;
68457;SDS011;65384;52.016;5.428;2023-07-13T09:17:00;8.23;;;4.00;;
68457;SDS011;65384;52.016;5.428;2023-07-13T09:19:28;8.77;;;3.15;;
68457;SDS011;65384;52.016;5.428;2023-07-13T09:21:57;6.82;;;2.67;;
68457;SDS011;65384;52.016;5.428;2023-07-13T09:27:11;7.40;;;2.60;;
68457;SDS011;65384;52.016;5.428;2023-07-13T09:29:45;8.10;;;2.85;;
68457;SDS011;65384;52.016;5.428;2023-07-13T09:32:14;6.05;;;2.70;;
68457;SDS011;65384;52.016;5.428;2023-07-13T09:34:49;6.47;;;2.90;;
68457;SDS011;65384;52.016;5.428;2023-07-13T09:37:16;7.72;;;2.80;;
68457;SDS011;65384;52.016;5.428;2023-07-13T09:39:41;9.60;;;3.13;;
68457;SDS011;65384;52.016;5.428;2023-07-13T09:47:02;8.77;;;3.25;;
68457;SDS011;65384;52.016;5.428;2023-07-13T09:49:37;9.77;;;3.10;;
68457;SDS011;65384;52.016;5.428;2023-07-13T09:52:04;8.30;;;2.88;;
68457;SDS011;65384;52.016;5.428;2023-07-13T09:54:33;7.45;;;2.95;;
68457;SDS011;65384;52.016;5.428;2023-07-13T09:57:00;7.82;;;3.33;;
68457;SDS011;65384;52.016;5.428;2023-07-13T09:59:30;9.68;;;3.20;;
68457;SDS011;65384;52.016;5.428;2023-07-13T10:01:59;6.85;;;2.63;;
68457;SDS011;65384;52.016;5.428;2023-07-13T10:04:30;7.72;;;2.53;;
68457;SDS011;65384;52.016;5.428;2023-07-13T10:07:05;6.03;;;2.50;;
68457;SDS011;65384;52.016;5.428;2023-07-13T10:09:34;9.35;;;2.55;;
68457;SDS011;65384;52.016;5.428;2023-07-13T10:12:00;5.82;;;2.00;;
68457;SDS011;65384;52.016;5.428;2023-07-13T10:14:25;5.05;;;1.95;;
68457;SDS011;65384;52.016;5.428;2023-07-13T10:16:52;6.13;;;2.00;;
68457;SDS011;65384;52.016;5.428;2023-07-13T10:19:24;5.35;;;2.20;;
68457;SDS011;65384;52.016;5.428;2023-07-13T10:21:56;5.10;;;2.00;;
68457;SDS011;65384;52.016;5.428;2023-07-13T10:24:25;5.95;;;2.10;;
68457;SDS011;65384;52.016;5.428;2023-07-13T10:26:53;5.05;;;2.20;;
68457;SDS011;65384;52.016;5.428;2023-07-13T10:29:22;4.70;;;2.00;;
68457;SDS011;65384;52.016;5.428;2023-07-13T10:31:49;4.85;;;2.17;;
68457;SDS011;65384;52.016;5.428;2023-07-13T10:34:15;4.45;;;2.08;;
68457;SDS011;65384;52.016;5.428;2023-07-13T10:36:42;5.25;;;2.05;;
68457;SDS011;65384;52.016;5.428;2023-07-13T10:39:13;5.20;;;2.17;;
68457;SDS011;65384;52.016;5.428;2023-07-13T10:41:42;4.93;;;2.40;;
68457;SDS011;65384;52.016;5.428;2023-07-13T10:44:12;4.60;;;2.65;;
68457;SDS011;65384;52.016;5.428;2023-07-13T10:46:44;5.70;;;2.40;;
68457;SDS011;65384;52.016;5.428;2023-07-13T10:49:10;4.72;;;2.30;;
68457;SDS011;65384;52.016;5.428;2023-07-13T10:51:35;5.82;;;2.47;;
68457;SDS011;65384;52.016;5.428;2023-07-13T10:54:14;4.33;;;2.27;;
68457;SDS011;65384;52.016;5.428;2023-07-13T10:56:50;6.95;;;2.30;;
68457;SDS011;65384;52.016;5.428;2023-07-13T10:59:18;4.90;;;2.00;;
68457;SDS011;65384;52.016;5.428;2023-07-13T11:01:55;4.22;;;1.90;;
68457;SDS011;65384;52.016;5.428;2023-07-13T11:04:39;4.63;;;1.90;;
68457;SDS011;65384;52.016;5.428;2023-07-13T11:07:11;4.35;;;1.90;;
68457;SDS011;65384;52.016;5.428;2023-07-13T11:09:44;4.72;;;1.70;;
68457;SDS011;65384;52.016;5.428;2023-07-13T11:22:43;4.95;;;2.03;;
68457;SDS011;65384;52.016;5.428;2023-07-13T11:28:04;4.30;;;1.65;;
68457;SDS011;65384;52.016;5.428;2023-07-13T11:30:37;3.65;;;1.90;;
68457;SDS011;65384;52.016;5.428;2023-07-13T11:36:03;5.45;;;2.03;;
68457;SDS011;65384;52.016;5.428;2023-07-13T11:38:36;4.85;;;2.25;;
68457;SDS011;65384;52.016;5.428;2023-07-13T11:41:15;6.10;;;2.40;;
68457;SDS011;65384;52.016;5.428;2023-07-13T11:44:01;4.53;;;2.20;;
68457;SDS011;65384;52.016;5.428;2023-07-13T11:46:30;7.00;;;2.80;;
68457;SDS011;65384;52.016;5.428;2023-07-13T11:48:55;7.65;;;2.92;;
68457;SDS011;65384;52.016;5.428;2023-07-13T11:51:22;6.45;;;2.55;;
68457;SDS011;65384;52.016;5.428;2023-07-13T11:53:50;8.27;;;2.60;;
68457;SDS011;65384;52.016;5.428;2023-07-13T11:56:16;8.00;;;2.83;;
68457;SDS011;65384;52.016;5.428;2023-07-13T11:58:41;6.10;;;2.38;;
68457;SDS011;65384;52.016;5.428;2023-07-13T12:01:10;5.22;;;2.58;;
68457;SDS011;65384;52.016;5.428;2023-07-13T12:03:43;5.65;;;2.15;;
68457;SDS011;65384;52.016;5.428;2023-07-13T12:06:20;5.13;;;1.90;;
68457;SDS011;65384;52.016;5.428;2023-07-13T12:08:49;4.95;;;2.00;;
68457;SDS011;65384;52.016;5.428;2023-07-13T12:11:15;4.97;;;2.22;;
68457;SDS011;65384;52.016;5.428;2023-07-13T12:13:43;4.82;;;2.20;;
68457;SDS011;65384;52.016;5.428;2023-07-13T12:16:14;4.50;;;2.50;;
68457;SDS011;65384;52.016;5.428;2023-07-13T12:18:41;6.82;;;2.47;;
68457;SDS011;65384;52.016;5.428;2023-07-13T12:21:10;5.40;;;2.22;;
68457;SDS011;65384;52.016;5.428;2023-07-13T12:23:39;5.00;;;2.30;;
68457;SDS011;65384;52.016;5.428;2023-07-13T12:26:05;8.38;;;2.60;;
68457;SDS011;65384;52.016;5.428;2023-07-13T12:30:59;5.85;;;2.55;;
68457;SDS011;65384;52.016;5.428;2023-07-13T12:33:29;6.90;;;2.40;;
68457;SDS011;65384;52.016;5.428;2023-07-13T12:35:55;4.53;;;2.30;;
68457;SDS011;65384;52.016;5.428;2023-07-13T12:38:20;5.72;;;2.40;;
68457;SDS011;65384;52.016;5.428;2023-07-13T12:40:48;5.85;;;2.40;;
68457;SDS011;65384;52.016;5.428;2023-07-13T12:43:15;10.57;;;2.55;;
68457;SDS011;65384;52.016;5.428;2023-07-13T12:48:30;5.55;;;2.20;;
68457;SDS011;65384;52.016;5.428;2023-07-13T12:51:03;3.83;;;2.20;;
68457;SDS011;65384;52.016;5.428;2023-07-13T12:53:29;5.55;;;2.35;;
68457;SDS011;65384;52.016;5.428;2023-07-13T12:55:57;4.65;;;2.25;;
68457;SDS011;65384;52.016;5.428;2023-07-13T12:58:37;3.55;;;2.00;;
68457;SDS011;65384;52.016;5.428;2023-07-13T13:01:05;4.07;;;2.13;;
68457;SDS011;65384;52.016;5.428;2023-07-13T13:03:33;4.93;;;2.20;;
68457;SDS011;65384;52.016;5.428;2023-07-13T13:06:02;4.55;;;1.85;;
68457;SDS011;65384;52.016;5.428;2023-07-13T13:08:55;3.78;;;2.00;;
68457;SDS011;65384;52.016;5.428;2023-07-13T13:11:23;4.45;;;1.90;;
68457;SDS011;65384;52.016;5.428;2023-07-13T13:13:51;6.47;;;2.10;;
68457;SDS011;65384;52.016;5.428;2023-07-13T13:16:23;4.03;;;2.03;;
68457;SDS011;65384;52.016;5.428;2023-07-13T13:21:44;5.47;;;2.10;;
68457;SDS011;65384;52.016;5.428;2023-07-13T13:24:10;4.68;;;1.98;;
68457;SDS011;65384;52.016;5.428;2023-07-13T13:26:37;4.28;;;2.00;;
68457;SDS011;65384;52.016;5.428;2023-07-13T13:29:24;4.20;;;1.77;;
68457;SDS011;65384;52.016;5.428;2023-07-13T13:31:52;4.38;;;2.20;;
68457;SDS011;65384;52.016;5.428;2023-07-13T13:34:19;5.35;;;2.15;;
68457;SDS011;65384;52.016;5.428;2023-07-13T13:36:48;4.82;;;2.10;;
68457;SDS011;65384;52.016;5.428;2023-07-13T13:39:24;5.05;;;2.00;;
68457;SDS011;65384;52.016;5.428;2023-07-13T13:41:54;6.88;;;2.30;;
68457;SDS011;65384;52.016;5.428;2023-07-13T13:44:20;3.47;;;1.98;;
68457;SDS011;65384;52.016;5.428;2023-07-13T13:46:50;4.40;;;2.10;;
68457;SDS011;65384;52.016;5.428;2023-07-13T13:49:18;4.25;;;1.98;;
68457;SDS011;65384;52.016;5.428;2023-07-13T13:51:46;3.30;;;1.70;;
68457;SDS011;65384;52.016;5.428;2023-07-13T13:54:13;5.22;;;2.10;;
68457;SDS011;65384;52.016;5.428;2023-07-13T13:56:41;2.97;;;1.80;;
68457;SDS011;65384;52.016;5.428;2023-07-13T13:59:10;5.63;;;2.28;;
68457;SDS011;65384;52.016;5.428;2023-07-13T14:01:36;7.00;;;2.17;;
68457;SDS011;65384;52.016;5.428;2023-07-13T14:04:02;4.93;;;2.28;;
68457;SDS011;65384;52.016;5.428;2023-07-13T14:06:28;5.72;;;1.90;;
68457;SDS011;65384;52.016;5.428;2023-07-13T14:08:53;9.30;;;2.25;;
68457;SDS011;65384;52.016;5.428;2023-07-13T14:11:21;4.10;;;2.05;;
68457;SDS011;65384;52.016;5.428;2023-07-13T14:13:50;4.53;;;2.13;;
68457;SDS011;65384;52.016;5.428;2023-07-13T14:18:44;5.20;;;2.15;;
68457;SDS011;65384;52.016;5.428;2023-07-13T14:21:11;6.18;;;2.15;;
68457;SDS011;65384;52.016;5.428;2023-07-13T14:23:42;10.60;;;2.20;;
68457;SDS011;65384;52.016;5.428;2023-07-13T14:26:15;2.83;;;1.70;;
68457;SDS011;65384;52.016;5.428;2023-07-13T14:28:43;3.00;;;1.80;;
68457;SDS011;65384;52.016;5.428;2023-07-13T14:31:11;7.10;;;1.90;;
68457;SDS011;65384;52.016;5.428;2023-07-13T14:33:37;5.28;;;1.90;;
68457;SDS011;65384;52.016;5.428;2023-07-13T14:36:05;7.50;;;2.30;;
68457;SDS011;65384;52.016;5.428;2023-07-13T14:38:38;8.57;;;1.83;;
68457;SDS011;65384;52.016;5.428;2023-07-13T14:41:04;3.05;;;1.67;;
68457;SDS011;65384;52.016;5.428;2023-07-13T14:43:30;5.25;;;1.70;;
68457;SDS011;65384;52.016;5.428;2023-07-13T14:45:55;5.57;;;2.00;;
68457;SDS011;65384;52.016;5.428;2023-07-13T14:48:22;4.43;;;2.08;;
68457;SDS011;65384;52.016;5.428;2023-07-13T14:50:53;3.95;;;1.80;;
68457;SDS011;65384;52.016;5.428;2023-07-13T14:55:45;5.15;;;2.10;;
68457;SDS011;65384;52.016;5.428;2023-07-13T14:58:11;4.45;;;1.73;;
68457;SDS011;65384;52.016;5.428;2023-07-13T15:00:38;3.25;;;1.70;;
68457;SDS011;65384;52.016;5.428;2023-07-13T15:03:04;3.85;;;1.73;;
68457;SDS011;65384;52.016;5.428;2023-07-13T15:05:31;2.72;;;1.73;;
68457;SDS011;65384;52.016;5.428;2023-07-13T15:08:01;3.28;;;1.88;;
68457;SDS011;65384;52.016;5.428;2023-07-13T15:10:28;5.28;;;1.85;;
68457;SDS011;65384;52.016;5.428;2023-07-13T15:12:58;3.20;;;1.60;;
68457;SDS011;65384;52.016;5.428;2023-07-13T15:15:26;3.17;;;1.40;;
68457;SDS011;65384;52.016;5.428;2023-07-13T15:17:53;3.50;;;1.70;;
68457;SDS011;65384;52.016;5.428;2023-07-13T15:22:45;2.60;;;1.55;;
68457;SDS011;65384;52.016;5.428;2023-07-13T15:25:18;2.95;;;1.50;;
68457;SDS011;65384;52.016;5.428;2023-07-13T15:27:48;8.02;;;2.28;;
68457;SDS011;65384;52.016;5.428;2023-07-13T15:30:14;4.32;;;1.80;;
68457;SDS011;65384;52.016;5.428;2023-07-13T15:32:41;3.97;;;1.60;;
68457;SDS011;65384;52.016;5.428;2023-07-13T15:35:16;2.83;;;1.60;;
68457;SDS011;65384;52.016;5.428;2023-07-13T15:37:44;4.13;;;1.70;;